ususleCam  ususleCam


Besuchen Sie unsere anderen Wetter Stationen:

Template documentation
and downloads

And another site



METAR-Meldungen aus der Umgebung

   
LSZH - Zurich-Kloten (a, Switzerland
Entfernung von der Station bis: NW 47 km
Aktualisierung: 27-05-2019 00:50
Stark bewölkt  
Stark bewölkt  
   Wind: SO 6 km/h
Wind: SO 6 km/h
Temperatur: 13°C
Taupunkt: 10°C
Luftfeuchte: 82%
Luftdruck: 1015 hPa
Bewölkung: Stark bewölkt
Sichtbarkeit: More than 10 km
Bewölkung: leicht bewölkt 5500 ft,
Stark bewölkt 8000 ft
LSZH 262250Z 14003KT 9999 FEW055 BKN080 13/10 Q1015 NOSIG
LSZL - Locarno, Switzerland
Entfernung von der Station bis: S 119 km
Aktualisierung: 27-05-2019 00:50
Stark bewölkt  
Stark bewölkt  
   Wind: variiert 2 km/h
Wind: variiert 2 km/h
Temperatur: 15°C
Taupunkt: 14°C
Luftfeuchte: 94%
Luftdruck: 1014 hPa
Bewölkung: Stark bewölkt
Sichtbarkeit: 10 km
Bewölkung: Stark bewölkt 11000 ft
LSZL 262250Z AUTO VRB01KT 9999NDV BKN110 15/14 Q1014 RMK
LSZS - Samedan, Switzerland
Entfernung von der Station bis: SO 101 km
Aktualisierung: 27-05-2019 00:50
Klar  
Klar  
   Wind: Süden 2 km/h
Wind: Süden 2 km/h
Temperatur: 4°C
Taupunkt: 3°C
Luftfeuchte: 93%
Luftdruck: 1017 hPa
Sichtbarkeit: More than 10 km
Bewölkung: Klar
LSZS 262250Z AUTO 17001KT CAVOK 04/03 Q1017
LSME - Emmen, Switzerland
Entfernung von der Station bis: WSW 58 km
Aktualisierung: 27-05-2019 00:50
Stark bewölkt  
Stark bewölkt  
   Wind: Westen 6 km/h
Wind: Westen 6 km/h
Temperatur: 14°C
Taupunkt: 10°C
Luftfeuchte: 77%
Luftdruck: 1015 hPa
Bewölkung: Stark bewölkt
Sichtbarkeit: 10 km
Bewölkung: Stark bewölkt 6900 ft
LSME 262250Z AUTO 26003KT 9999NDV BKN069 14/10 Q1015 RMK
LSZB - Bern/Belp, Switzerland
Entfernung von der Station bis: WSW 122 km
Aktualisierung: 27-05-2019 00:50
Stark bewölkt  
Stark bewölkt  
   Wind: variiert 2 km/h
Wind: variiert 2 km/h
Temperatur: 12°C
Taupunkt: 12°C
Luftfeuchte: 100%
Luftdruck: 1015 hPa
Bewölkung: Stark bewölkt
Sichtbarkeit: More than 10 km
Bewölkung: Stark bewölkt 8000 ft
LSZB 262250Z AUTO VRB01KT 9999 BKN080 12/12 Q1015
LFSB - Bale/Mulhouse, France
Entfernung von der Station bis: WNW 121 km
Aktualisierung: 27-05-2019 01:00
Klar  
Klar  
   Wind: Windstille
Wind: Windstille
Temperatur: 15°C
Taupunkt: 9°C
Luftfeuchte: 68%
Luftdruck: 1014 hPa
Sichtbarkeit: More than 10 km
Bewölkung: Klar
LFSB 262300Z AUTO 00000KT CAVOK 15/09 Q1014 NOSIG

Script entwickelt von  Saratoga-weather.org Angepasst für das Template von  Weerstation Leuven

Von uns verwendete Ausrüstung:

Wetterstation
Davis Vue

Wetterprogramm
Weather Display

Davis Vue

Weather Display